createdAt,value
2019-04-21T18:02:53.772Z,17.00
2019-04-21T18:05:29.417Z,16.80
2019-04-21T18:07:54.744Z,16.60
2019-04-21T18:10:27.723Z,16.60
2019-04-21T18:12:52.056Z,16.50
2019-04-21T18:15:34.002Z,16.40
2019-04-21T18:17:44.882Z,16.30
2019-04-21T18:20:17.741Z,16.20
2019-04-21T18:22:51.328Z,16.10
2019-04-21T18:25:40.253Z,16.10
2019-04-21T18:27:58.716Z,15.90
2019-04-21T18:30:48.710Z,15.80
2019-04-21T18:33:29.452Z,15.70
2019-04-21T18:36:02.934Z,15.60
2019-04-21T18:39:00.011Z,15.50
2019-04-21T18:41:15.559Z,15.30
2019-04-21T18:44:13.352Z,15.20
2019-04-21T18:46:39.790Z,15.20
2019-04-21T18:49:00.732Z,14.90
2019-04-21T18:51:57.305Z,14.80
2019-04-21T18:54:41.864Z,14.80
2019-04-21T18:57:10.026Z,14.60
2019-04-21T18:59:34.562Z,14.60
2019-04-21T19:02:06.335Z,14.60
2019-04-21T19:04:33.818Z,14.50
2019-04-21T19:07:20.029Z,14.50
2019-04-21T19:12:42.417Z,14.40
2019-04-21T19:14:58.002Z,14.30
2019-04-21T19:22:35.968Z,14.30
2019-04-21T19:25:11.492Z,14.10
2019-04-21T19:27:45.508Z,14.00
2019-04-21T19:30:21.934Z,13.90
2019-04-21T19:32:46.718Z,13.80
2019-04-21T19:35:01.872Z,13.70
2019-04-21T19:37:42.234Z,13.60
2019-04-21T19:40:16.346Z,13.60
2019-04-21T19:42:45.309Z,13.50
2019-04-21T19:45:22.221Z,13.40
2019-04-21T19:47:55.597Z,13.20
2019-04-21T19:50:35.258Z,13.20
2019-04-21T19:52:56.913Z,13.10
2019-04-21T19:55:16.502Z,12.90
2019-04-21T19:57:47.096Z,12.80
2019-04-21T20:00:19.178Z,12.70
2019-04-21T20:02:52.289Z,12.60
2019-04-21T20:05:32.765Z,12.40
2019-04-21T20:08:14.544Z,12.30
2019-04-21T20:10:48.456Z,12.10
2019-04-21T20:13:26.082Z,12.10
2019-04-21T20:15:52.314Z,12.00
2019-04-21T20:18:14.035Z,12.00
2019-04-21T20:20:33.027Z,11.90
2019-04-21T20:23:03.102Z,11.90
2019-04-21T20:25:41.836Z,11.80
2019-04-21T20:28:14.356Z,11.70
2019-04-21T20:30:58.352Z,11.60
2019-04-21T20:33:48.505Z,11.50
2019-04-21T20:36:12.240Z,11.40
2019-04-21T20:38:31.179Z,11.20
2019-04-21T20:40:59.158Z,11.20
2019-04-21T20:43:44.490Z,11.20
2019-04-21T20:46:07.483Z,11.20
2019-04-21T20:48:35.587Z,11.00
2019-04-21T20:51:18.444Z,11.00
2019-04-21T20:53:45.201Z,11.00
2019-04-21T20:56:14.730Z,10.90
2019-04-21T20:58:50.382Z,10.90
2019-04-21T21:01:41.334Z,10.80
2019-04-21T21:03:55.641Z,10.80
2019-04-21T21:06:26.123Z,10.80
2019-04-21T21:09:01.172Z,10.80
2019-04-21T21:11:29.564Z,10.80
2019-04-21T21:14:11.827Z,10.80
2019-04-21T21:16:47.623Z,10.80
2019-04-21T21:21:44.228Z,10.70
2019-04-21T21:24:15.782Z,10.60
2019-04-21T21:26:52.149Z,10.60
2019-04-21T21:29:21.324Z,10.60
2019-04-21T21:31:55.897Z,10.60
2019-04-21T21:34:28.067Z,10.60
2019-04-21T21:36:55.604Z,10.50
2019-04-21T21:39:36.332Z,10.50
2019-04-21T21:41:49.835Z,10.60
2019-04-21T21:44:18.262Z,10.60
2019-04-21T21:46:58.918Z,10.60
2019-04-21T21:49:33.139Z,10.60
2019-04-21T21:52:02.955Z,10.70
2019-04-21T21:54:22.955Z,10.70
2019-04-21T21:56:52.779Z,10.70
2019-04-21T21:59:26.557Z,10.70
2019-04-21T22:01:56.207Z,10.60
2019-04-21T22:04:29.937Z,10.60
2019-04-21T22:07:02.261Z,10.50
2019-04-21T22:09:30.291Z,10.50
2019-04-21T22:12:04.370Z,10.40
2019-04-21T22:14:40.652Z,10.40
2019-04-21T22:17:21.417Z,10.40
2019-04-21T22:20:00.370Z,10.30
2019-04-21T22:22:23.914Z,10.30
2019-04-21T22:24:51.074Z,10.30
2019-04-21T22:27:09.696Z,10.30
2019-04-21T22:29:45.368Z,10.30
2019-04-21T22:32:17.445Z,10.40
2019-04-21T22:34:50.308Z,10.50
2019-04-21T22:37:29.970Z,10.60
2019-04-21T22:40:03.635Z,10.60
2019-04-21T22:42:22.402Z,10.60
2019-04-21T22:44:48.669Z,10.70
2019-04-21T22:47:25.039Z,10.70
2019-04-21T22:49:50.651Z,10.70
2019-04-21T22:52:24.601Z,10.80
2019-04-21T22:54:54.023Z,10.80
2019-04-21T22:57:28.440Z,10.90
2019-04-21T23:00:01.100Z,11.00
2019-04-21T23:02:30.533Z,11.00
2019-04-21T23:05:00.539Z,11.00
2019-04-21T23:07:32.854Z,11.00
2019-04-21T23:10:03.350Z,10.90
2019-04-21T23:12:37.245Z,11.00
2019-04-21T23:15:13.461Z,11.00
2019-04-21T23:18:04.051Z,10.90
2019-04-21T23:20:34.458Z,10.80
2019-04-21T23:23:08.095Z,10.90
2019-04-21T23:25:30.530Z,10.90
2019-04-21T23:28:00.035Z,10.90
2019-04-21T23:30:45.178Z,10.90
2019-04-21T23:32:57.224Z,10.90
2019-04-21T23:35:27.835Z,10.90
2019-04-21T23:38:00.925Z,11.00
2019-04-21T23:40:27.337Z,11.10
2019-04-21T23:43:00.028Z,11.10
2019-04-21T23:45:33.472Z,11.10
2019-04-21T23:48:14.435Z,11.20
2019-04-21T23:50:43.071Z,11.20
2019-04-21T23:53:03.450Z,11.20
2019-04-21T23:55:34.913Z,11.20
2019-04-21T23:58:11.420Z,11.10
